sensor_id;sensor_type;location;lat;lon;timestamp;temperature;humidity
53643;DHT22;39546;45.534;12.048;2023-06-19T00:04:29;26.40;80.00
53643;DHT22;39546;45.534;12.048;2023-06-19T00:10:31;26.50;80.00
53643;DHT22;39546;45.534;12.048;2023-06-19T00:16:33;26.40;80.10
53643;DHT22;39546;45.534;12.048;2023-06-19T00:22:58;26.30;80.60
53643;DHT22;39546;45.534;12.048;2023-06-19T00:29:00;26.30;81.10
53643;DHT22;39546;45.534;12.048;2023-06-19T00:35:04;26.30;81.40
53643;DHT22;39546;45.534;12.048;2023-06-19T00:41:06;26.30;81.20
53643;DHT22;39546;45.534;12.048;2023-06-19T00:47:08;26.30;81.20
53643;DHT22;39546;45.534;12.048;2023-06-19T00:53:22;26.30;80.60
53643;DHT22;39546;45.534;12.048;2023-06-19T00:59:25;26.30;79.80
53643;DHT22;39546;45.534;12.048;2023-06-19T01:05:27;26.30;79.60
53643;DHT22;39546;45.534;12.048;2023-06-19T01:11:33;26.20;79.40
53643;DHT22;39546;45.534;12.048;2023-06-19T01:17:35;26.10;80.10
53643;DHT22;39546;45.534;12.048;2023-06-19T01:23:38;26.10;80.50
53643;DHT22;39546;45.534;12.048;2023-06-19T01:29:41;26.00;80.90
53643;DHT22;39546;45.534;12.048;2023-06-19T01:35:43;26.00;80.60
53643;DHT22;39546;45.534;12.048;2023-06-19T01:41:47;25.90;80.30
53643;DHT22;39546;45.534;12.048;2023-06-19T01:47:50;25.90;80.50
53643;DHT22;39546;45.534;12.048;2023-06-19T01:53:52;25.80;80.40
53643;DHT22;39546;45.534;12.048;2023-06-19T01:59:54;25.80;80.50
53643;DHT22;39546;45.534;12.048;2023-06-19T02:05:57;25.80;80.80
53643;DHT22;39546;45.534;12.048;2023-06-19T02:11:59;25.70;81.20
53643;DHT22;39546;45.534;12.048;2023-06-19T02:18:02;25.70;80.90
53643;DHT22;39546;45.534;12.048;2023-06-19T02:24:05;25.70;80.50
53643;DHT22;39546;45.534;12.048;2023-06-19T02:30:07;25.60;80.10
53643;DHT22;39546;45.534;12.048;2023-06-19T02:36:10;25.60;79.70
53643;DHT22;39546;45.534;12.048;2023-06-19T02:42:15;25.50;79.60
53643;DHT22;39546;45.534;12.048;2023-06-19T02:48:18;25.30;79.70
53643;DHT22;39546;45.534;12.048;2023-06-19T02:54:21;25.30;79.50
53643;DHT22;39546;45.534;12.048;2023-06-19T03:00:23;25.30;79.00
53643;DHT22;39546;45.534;12.048;2023-06-19T03:06:25;25.30;78.40
53643;DHT22;39546;45.534;12.048;2023-06-19T03:12:28;25.30;78.40
53643;DHT22;39546;45.534;12.048;2023-06-19T03:18:30;25.30;79.20
53643;DHT22;39546;45.534;12.048;2023-06-19T03:24:32;25.20;80.00
53643;DHT22;39546;45.534;12.048;2023-06-19T03:30:34;25.20;80.20
53643;DHT22;39546;45.534;12.048;2023-06-19T03:36:36;25.10;80.10
53643;DHT22;39546;45.534;12.048;2023-06-19T03:42:42;25.00;80.00
53643;DHT22;39546;45.534;12.048;2023-06-19T03:48:57;25.00;80.00
53643;DHT22;39546;45.534;12.048;2023-06-19T03:54:59;25.10;79.50
53643;DHT22;39546;45.534;12.048;2023-06-19T04:01:12;25.10;79.50
53643;DHT22;39546;45.534;12.048;2023-06-19T04:07:16;25.20;79.40
53643;DHT22;39546;45.534;12.048;2023-06-19T04:13:18;25.10;79.70
53643;DHT22;39546;45.534;12.048;2023-06-19T04:19:33;25.10;79.50
53643;DHT22;39546;45.534;12.048;2023-06-19T04:25:35;25.20;79.20
53643;DHT22;39546;45.534;12.048;2023-06-19T04:31:37;25.20;79.70
53643;DHT22;39546;45.534;12.048;2023-06-19T04:37:42;25.20;80.40
53643;DHT22;39546;45.534;12.048;2023-06-19T04:43:45;25.20;80.70
53643;DHT22;39546;45.534;12.048;2023-06-19T04:49:47;25.20;81.00
53643;DHT22;39546;45.534;12.048;2023-06-19T04:55:50;25.30;81.00
53643;DHT22;39546;45.534;12.048;2023-06-19T05:01:53;25.30;81.00
53643;DHT22;39546;45.534;12.048;2023-06-19T05:07:55;25.30;81.20
53643;DHT22;39546;45.534;12.048;2023-06-19T05:13:57;25.30;81.20
53643;DHT22;39546;45.534;12.048;2023-06-19T05:19:59;25.30;81.60
53643;DHT22;39546;45.534;12.048;2023-06-19T05:26:01;25.10;81.70
53643;DHT22;39546;45.534;12.048;2023-06-19T05:32:04;25.10;82.00
53643;DHT22;39546;45.534;12.048;2023-06-19T05:38:06;25.10;82.00
53643;DHT22;39546;45.534;12.048;2023-06-19T05:44:08;25.20;81.90
53643;DHT22;39546;45.534;12.048;2023-06-19T05:50:11;25.20;81.90
53643;DHT22;39546;45.534;12.048;2023-06-19T05:56:13;25.50;81.60
53643;DHT22;39546;45.534;12.048;2023-06-19T06:02:16;25.70;81.60
53643;DHT22;39546;45.534;12.048;2023-06-19T06:08:19;25.80;81.20
53643;DHT22;39546;45.534;12.048;2023-06-19T06:14:21;25.90;80.90
53643;DHT22;39546;45.534;12.048;2023-06-19T06:20:23;25.80;80.80
53643;DHT22;39546;45.534;12.048;2023-06-19T06:26:25;25.80;81.20
53643;DHT22;39546;45.534;12.048;2023-06-19T06:32:29;25.70;81.30
53643;DHT22;39546;45.534;12.048;2023-06-19T06:38:32;25.80;81.40
53643;DHT22;39546;45.534;12.048;2023-06-19T06:44:35;26.00;80.80
53643;DHT22;39546;45.534;12.048;2023-06-19T06:50:38;26.20;80.60
53643;DHT22;39546;45.534;12.048;2023-06-19T06:56:43;26.30;80.40
53643;DHT22;39546;45.534;12.048;2023-06-19T07:02:49;26.20;79.90
53643;DHT22;39546;45.534;12.048;2023-06-19T07:08:52;26.30;80.00
53643;DHT22;39546;45.534;12.048;2023-06-19T07:14:54;26.60;79.60
53643;DHT22;39546;45.534;12.048;2023-06-19T07:20:57;26.80;79.20
53643;DHT22;39546;45.534;12.048;2023-06-19T07:26:59;26.80;79.10
53643;DHT22;39546;45.534;12.048;2023-06-19T07:33:01;26.70;79.30
53643;DHT22;39546;45.534;12.048;2023-06-19T07:39:03;26.70;79.70
53643;DHT22;39546;45.534;12.048;2023-06-19T07:45:05;26.70;79.80
53643;DHT22;39546;45.534;12.048;2023-06-19T07:51:07;26.80;79.30
53643;DHT22;39546;45.534;12.048;2023-06-19T07:57:10;27.00;79.30
53643;DHT22;39546;45.534;12.048;2023-06-19T08:03:12;27.20;78.80
53643;DHT22;39546;45.534;12.048;2023-06-19T08:09:14;27.30;77.40
53643;DHT22;39546;45.534;12.048;2023-06-19T08:15:21;27.30;77.40
53643;DHT22;39546;45.534;12.048;2023-06-19T08:21:36;27.40;77.10
53643;DHT22;39546;45.534;12.048;2023-06-19T08:27:58;27.60;76.40
53643;DHT22;39546;45.534;12.048;2023-06-19T08:34:02;27.70;74.80
53643;DHT22;39546;45.534;12.048;2023-06-19T08:40:08;27.80;74.10
53643;DHT22;39546;45.534;12.048;2023-06-19T08:46:19;27.80;73.60
53643;DHT22;39546;45.534;12.048;2023-06-19T08:52:23;28.00;73.20
53643;DHT22;39546;45.534;12.048;2023-06-19T08:58:25;28.00;72.10
53643;DHT22;39546;45.534;12.048;2023-06-19T09:04:28;28.20;72.10
53643;DHT22;39546;45.534;12.048;2023-06-19T09:10:30;28.30;70.90
53643;DHT22;39546;45.534;12.048;2023-06-19T09:16:40;28.40;70.00
53643;DHT22;39546;45.534;12.048;2023-06-19T09:22:44;28.60;69.90
53643;DHT22;39546;45.534;12.048;2023-06-19T09:28:46;28.60;68.90
53643;DHT22;39546;45.534;12.048;2023-06-19T09:34:50;28.80;68.80
53643;DHT22;39546;45.534;12.048;2023-06-19T09:40:53;28.90;67.50
53643;DHT22;39546;45.534;12.048;2023-06-19T09:46:56;28.80;66.30
53643;DHT22;39546;45.534;12.048;2023-06-19T09:53:01;29.00;66.10
53643;DHT22;39546;45.534;12.048;2023-06-19T09:59:04;29.00;65.90
53643;DHT22;39546;45.534;12.048;2023-06-19T10:05:07;29.20;65.40
53643;DHT22;39546;45.534;12.048;2023-06-19T10:11:14;29.30;65.20
53643;DHT22;39546;45.534;12.048;2023-06-19T10:17:19;29.50;65.00
53643;DHT22;39546;45.534;12.048;2023-06-19T10:23:23;29.80;64.80
53643;DHT22;39546;45.534;12.048;2023-06-19T10:29:39;29.80;63.60
53643;DHT22;39546;45.534;12.048;2023-06-19T10:35:41;29.80;63.10
53643;DHT22;39546;45.534;12.048;2023-06-19T10:41:43;29.90;63.80
53643;DHT22;39546;45.534;12.048;2023-06-19T10:47:45;30.10;62.70
53643;DHT22;39546;45.534;12.048;2023-06-19T10:53:47;30.30;62.50
53643;DHT22;39546;45.534;12.048;2023-06-19T10:59:51;30.50;63.10
53643;DHT22;39546;45.534;12.048;2023-06-19T11:05:54;30.70;62.10
53643;DHT22;39546;45.534;12.048;2023-06-19T11:11:56;30.70;62.50
53643;DHT22;39546;45.534;12.048;2023-06-19T11:18:02;30.60;59.90
53643;DHT22;39546;45.534;12.048;2023-06-19T11:24:16;30.80;59.30
53643;DHT22;39546;45.534;12.048;2023-06-19T11:30:19;30.90;60.40
53643;DHT22;39546;45.534;12.048;2023-06-19T11:36:32;31.20;59.50
53643;DHT22;39546;45.534;12.048;2023-06-19T11:42:44;31.20;57.30
53643;DHT22;39546;45.534;12.048;2023-06-19T11:48:46;31.40;58.80
53643;DHT22;39546;45.534;12.048;2023-06-19T11:54:49;31.80;58.00
53643;DHT22;39546;45.534;12.048;2023-06-19T12:00:52;32.10;57.10
53643;DHT22;39546;45.534;12.048;2023-06-19T12:06:55;32.20;56.60
53643;DHT22;39546;45.534;12.048;2023-06-19T12:13:29;32.00;55.60
53643;DHT22;39546;45.534;12.048;2023-06-19T12:19:38;32.00;56.30
53643;DHT22;39546;45.534;12.048;2023-06-19T12:25:40;32.10;54.90
53643;DHT22;39546;45.534;12.048;2023-06-19T12:31:43;32.20;54.90
53643;DHT22;39546;45.534;12.048;2023-06-19T12:38:11;32.20;57.00
53643;DHT22;39546;45.534;12.048;2023-06-19T12:44:14;32.10;56.60
53643;DHT22;39546;45.534;12.048;2023-06-19T12:50:16;31.90;56.20
53643;DHT22;39546;45.534;12.048;2023-06-19T12:56:18;31.80;56.10
53643;DHT22;39546;45.534;12.048;2023-06-19T13:02:20;32.10;55.80
53643;DHT22;39546;45.534;12.048;2023-06-19T13:08:24;32.40;55.00
53643;DHT22;39546;45.534;12.048;2023-06-19T13:14:27;32.30;53.60
53643;DHT22;39546;45.534;12.048;2023-06-19T13:20:32;32.40;53.10
53643;DHT22;39546;45.534;12.048;2023-06-19T13:26:36;32.30;52.20
53643;DHT22;39546;45.534;12.048;2023-06-19T13:32:38;32.30;52.20
53643;DHT22;39546;45.534;12.048;2023-06-19T13:38:40;32.50;52.40
53643;DHT22;39546;45.534;12.048;2023-06-19T13:44:42;32.50;50.30
53643;DHT22;39546;45.534;12.048;2023-06-19T13:50:44;32.30;52.40
53643;DHT22;39546;45.534;12.048;2023-06-19T13:56:48;32.30;52.10
53643;DHT22;39546;45.534;12.048;2023-06-19T14:02:51;32.30;56.70
53643;DHT22;39546;45.534;12.048;2023-06-19T14:08:54;32.30;55.50
53643;DHT22;39546;45.534;12.048;2023-06-19T14:14:56;32.40;54.50
53643;DHT22;39546;45.534;12.048;2023-06-19T14:20:59;32.50;53.80
53643;DHT22;39546;45.534;12.048;2023-06-19T14:27:01;32.50;53.70
53643;DHT22;39546;45.534;12.048;2023-06-19T14:33:03;32.40;54.30
53643;DHT22;39546;45.534;12.048;2023-06-19T14:39:05;32.40;58.10
53643;DHT22;39546;45.534;12.048;2023-06-19T14:45:08;32.30;58.70
53643;DHT22;39546;45.534;12.048;2023-06-19T14:51:10;32.40;59.30
53643;DHT22;39546;45.534;12.048;2023-06-19T14:57:13;32.30;57.80
53643;DHT22;39546;45.534;12.048;2023-06-19T15:03:15;32.30;57.30
53643;DHT22;39546;45.534;12.048;2023-06-19T15:09:17;32.20;57.30
53643;DHT22;39546;45.534;12.048;2023-06-19T15:15:20;32.20;56.90
53643;DHT22;39546;45.534;12.048;2023-06-19T15:21:22;32.20;56.80
53643;DHT22;39546;45.534;12.048;2023-06-19T15:31:21;32.20;57.20
53643;DHT22;39546;45.534;12.048;2023-06-19T15:37:24;32.20;57.00
53643;DHT22;39546;45.534;12.048;2023-06-19T15:43:26;32.20;57.00
53643;DHT22;39546;45.534;12.048;2023-06-19T15:49:30;32.20;56.70
53643;DHT22;39546;45.534;12.048;2023-06-19T15:55:32;32.20;57.90
53643;DHT22;39546;45.534;12.048;2023-06-19T16:01:35;32.20;59.00
53643;DHT22;39546;45.534;12.048;2023-06-19T16:07:37;32.10;58.60
53643;DHT22;39546;45.534;12.048;2023-06-19T16:13:39;32.10;58.70
53643;DHT22;39546;45.534;12.048;2023-06-19T16:19:41;32.10;59.10
53643;DHT22;39546;45.534;12.048;2023-06-19T16:25:43;32.10;59.90
53643;DHT22;39546;45.534;12.048;2023-06-19T16:31:46;32.10;59.70
53643;DHT22;39546;45.534;12.048;2023-06-19T16:37:50;32.10;59.30
53643;DHT22;39546;45.534;12.048;2023-06-19T16:43:55;32.10;59.80
53643;DHT22;39546;45.534;12.048;2023-06-19T16:49:57;32.00;61.00
53643;DHT22;39546;45.534;12.048;2023-06-19T16:55:59;32.00;60.80
53643;DHT22;39546;45.534;12.048;2023-06-19T17:02:01;32.00;62.70
53643;DHT22;39546;45.534;12.048;2023-06-19T17:08:04;31.80;63.80
53643;DHT22;39546;45.534;12.048;2023-06-19T17:14:06;31.80;63.50
53643;DHT22;39546;45.534;12.048;2023-06-19T17:20:08;31.70;64.00
53643;DHT22;39546;45.534;12.048;2023-06-19T17:26:15;31.60;63.90
53643;DHT22;39546;45.534;12.048;2023-06-19T17:32:17;31.50;64.90
53643;DHT22;39546;45.534;12.048;2023-06-19T17:38:19;31.40;65.40
53643;DHT22;39546;45.534;12.048;2023-06-19T17:44:22;31.40;64.90
53643;DHT22;39546;45.534;12.048;2023-06-19T17:50:29;31.40;65.70
53643;DHT22;39546;45.534;12.048;2023-06-19T17:56:32;31.40;66.20
53643;DHT22;39546;45.534;12.048;2023-06-19T18:02:34;31.60;66.40
53643;DHT22;39546;45.534;12.048;2023-06-19T18:08:36;31.60;65.90
53643;DHT22;39546;45.534;12.048;2023-06-19T18:14:38;31.30;66.50
53643;DHT22;39546;45.534;12.048;2023-06-19T18:20:41;31.00;67.00
53643;DHT22;39546;45.534;12.048;2023-06-19T18:26:43;30.80;66.90
53643;DHT22;39546;45.534;12.048;2023-06-19T18:32:45;30.80;67.20
53643;DHT22;39546;45.534;12.048;2023-06-19T18:38:47;30.60;67.30
53643;DHT22;39546;45.534;12.048;2023-06-19T18:44:50;30.60;67.30
53643;DHT22;39546;45.534;12.048;2023-06-19T18:50:52;30.30;68.00
53643;DHT22;39546;45.534;12.048;2023-06-19T18:56:54;30.20;68.50
53643;DHT22;39546;45.534;12.048;2023-06-19T19:02:56;30.20;68.90
53643;DHT22;39546;45.534;12.048;2023-06-19T19:09:00;30.10;69.50
53643;DHT22;39546;45.534;12.048;2023-06-19T19:15:02;30.00;69.80
53643;DHT22;39546;45.534;12.048;2023-06-19T19:21:04;30.00;70.00
53643;DHT22;39546;45.534;12.048;2023-06-19T19:27:06;30.00;70.20
53643;DHT22;39546;45.534;12.048;2023-06-19T19:33:09;29.90;70.40
53643;DHT22;39546;45.534;12.048;2023-06-19T19:39:12;29.80;70.80
53643;DHT22;39546;45.534;12.048;2023-06-19T19:45:14;29.80;71.00
53643;DHT22;39546;45.534;12.048;2023-06-19T19:51:17;29.80;71.60
53643;DHT22;39546;45.534;12.048;2023-06-19T19:57:19;29.60;72.50
53643;DHT22;39546;45.534;12.048;2023-06-19T20:03:21;29.50;72.80
53643;DHT22;39546;45.534;12.048;2023-06-19T20:09:23;29.40;73.40
53643;DHT22;39546;45.534;12.048;2023-06-19T20:15:25;29.40;73.40
53643;DHT22;39546;45.534;12.048;2023-06-19T20:21:28;29.40;73.40
53643;DHT22;39546;45.534;12.048;2023-06-19T20:27:31;29.30;73.50
53643;DHT22;39546;45.534;12.048;2023-06-19T20:33:33;29.30;73.60
53643;DHT22;39546;45.534;12.048;2023-06-19T20:39:35;29.20;73.80
53643;DHT22;39546;45.534;12.048;2023-06-19T20:45:37;29.10;73.80
53643;DHT22;39546;45.534;12.048;2023-06-19T20:51:42;29.00;73.90
53643;DHT22;39546;45.534;12.048;2023-06-19T20:57:44;29.00;74.20
53643;DHT22;39546;45.534;12.048;2023-06-19T21:03:46;29.00;74.30
53643;DHT22;39546;45.534;12.048;2023-06-19T21:09:51;28.90;74.40
53643;DHT22;39546;45.534;12.048;2023-06-19T21:15:53;28.90;74.90
53643;DHT22;39546;45.534;12.048;2023-06-19T21:21:55;28.80;75.30
53643;DHT22;39546;45.534;12.048;2023-06-19T21:27:57;28.80;75.30
53643;DHT22;39546;45.534;12.048;2023-06-19T21:34:02;28.70;75.40
53643;DHT22;39546;45.534;12.048;2023-06-19T21:40:06;28.50;76.10
53643;DHT22;39546;45.534;12.048;2023-06-19T21:46:09;28.40;76.10
53643;DHT22;39546;45.534;12.048;2023-06-19T21:52:11;28.30;76.10
53643;DHT22;39546;45.534;12.048;2023-06-19T21:58:13;28.30;76.20
53643;DHT22;39546;45.534;12.048;2023-06-19T22:04:15;28.30;76.40
53643;DHT22;39546;45.534;12.048;2023-06-19T22:10:18;28.30;77.00
53643;DHT22;39546;45.534;12.048;2023-06-19T22:16:20;28.20;77.10
53643;DHT22;39546;45.534;12.048;2023-06-19T22:22:22;28.20;76.90
53643;DHT22;39546;45.534;12.048;2023-06-19T22:28:24;28.20;76.70
53643;DHT22;39546;45.534;12.048;2023-06-19T22:34:26;28.10;76.70
53643;DHT22;39546;45.534;12.048;2023-06-19T22:40:29;28.10;76.60
53643;DHT22;39546;45.534;12.048;2023-06-19T22:46:31;28.10;76.70
53643;DHT22;39546;45.534;12.048;2023-06-19T22:52:34;28.00;77.00
53643;DHT22;39546;45.534;12.048;2023-06-19T22:58:36;28.00;76.90
53643;DHT22;39546;45.534;12.048;2023-06-19T23:04:39;27.90;77.20
53643;DHT22;39546;45.534;12.048;2023-06-19T23:10:41;27.90;77.30
53643;DHT22;39546;45.534;12.048;2023-06-19T23:16:43;27.80;77.30
53643;DHT22;39546;45.534;12.048;2023-06-19T23:22:45;27.70;77.40
53643;DHT22;39546;45.534;12.048;2023-06-19T23:28:50;27.70;77.40
53643;DHT22;39546;45.534;12.048;2023-06-19T23:34:52;27.60;77.50
53643;DHT22;39546;45.534;12.048;2023-06-19T23:40:54;27.50;77.90
53643;DHT22;39546;45.534;12.048;2023-06-19T23:46:56;27.40;78.60
53643;DHT22;39546;45.534;12.048;2023-06-19T23:52:58;27.50;78.50
53643;DHT22;39546;45.534;12.048;2023-06-19T23:59:00;27.60;78.40
